Time;durP1;ratioP1;P1;durP2;ratioP2;P2;SDS_P1;SDS_P2;PMS_P1;PMS_P2;Temp;Humidity;BMP_temperature;BMP_pressure;BME280_temperature;BME280_humidity;BME280_pressure;Samples;Min_cycle;Max_cycle;Signal;HPM_P1;HPM_P2
2023/12/21 00:00:54;;;;;;;9.68;2.63;;;10.60;99.90;;;;;;4838695;29;20038;-80
2023/12/21 00:03:20;;;;;;;9.48;1.92;;;10.70;99.90;;;;;;4842580;29;20439;-81
2023/12/21 00:05:46;;;;;;;6.07;1.95;;;10.60;99.90;;;;;;4843548;29;20316;-80
2023/12/21 00:08:11;;;;;;;11.85;1.92;;;10.70;99.90;;;;;;4838647;29;20030;-79
2023/12/21 00:10:37;;;;;;;14.65;2.00;;;10.70;99.90;;;;;;4841686;29;20348;-80
2023/12/21 00:13:02;;;;;;;7.82;1.90;;;10.70;99.90;;;;;;4842074;29;20038;-80
2023/12/21 00:15:28;;;;;;;9.95;1.80;;;10.70;99.90;;;;;;4845375;29;20041;-81
2023/12/21 00:17:54;;;;;;;8.68;2.00;;;10.70;99.90;;;;;;4842966;29;20101;-80
2023/12/21 00:20:20;;;;;;;8.82;1.80;;;10.70;99.90;;;;;;4840651;29;20077;-80
2023/12/21 00:22:46;;;;;;;9.18;1.55;;;10.80;99.90;;;;;;4844261;29;20101;-80
2023/12/21 00:25:12;;;;;;;7.75;1.50;;;10.70;99.90;;;;;;4842810;29;20041;-81
2023/12/21 00:27:38;;;;;;;4.75;1.45;;;10.80;99.90;;;;;;4845019;29;20040;-80
2023/12/21 00:30:05;;;;;;;7.40;1.67;;;10.80;99.90;;;;;;4842288;29;20478;-81
2023/12/21 00:32:30;;;;;;;7.47;1.48;;;10.80;99.90;;;;;;4842358;29;20036;-80
2023/12/21 00:34:56;;;;;;;6.80;1.80;;;10.80;99.90;;;;;;4840965;29;20034;-80
2023/12/21 00:37:22;;;;;;;5.95;1.65;;;10.90;99.90;;;;;;4838218;29;20464;-81
2023/12/21 00:39:48;;;;;;;7.88;1.60;;;10.80;99.90;;;;;;4839996;29;20088;-80
2023/12/21 00:42:13;;;;;;;5.20;1.63;;;10.80;99.90;;;;;;4843473;29;20041;-80
2023/12/21 00:44:39;;;;;;;4.97;1.60;;;10.90;99.90;;;;;;4840770;29;20049;-81
2023/12/21 00:47:05;;;;;;;7.20;1.40;;;10.90;99.90;;;;;;4844778;29;20046;-81
2023/12/21 00:49:31;;;;;;;10.68;2.35;;;10.90;99.90;;;;;;4847757;29;20029;-80
2023/12/21 00:51:56;;;;;;;7.18;1.50;;;10.90;99.90;;;;;;4847846;29;20029;-81
2023/12/21 00:54:22;;;;;;;4.22;1.88;;;11.00;99.90;;;;;;4839385;29;20451;-81
2023/12/21 00:56:47;;;;;;;10.40;1.88;;;11.00;99.90;;;;;;4843129;29;20054;-81
2023/12/21 00:59:13;;;;;;;3.28;0.90;;;11.00;99.90;;;;;;4843762;29;20041;-80
2023/12/21 01:01:39;;;;;;;5.68;1.45;;;11.00;99.90;;;;;;4842144;29;20045;-81
2023/12/21 01:04:04;;;;;;;6.28;1.10;;;11.00;99.90;;;;;;4844523;29;20049;-81
2023/12/21 01:06:30;;;;;;;5.22;1.27;;;11.10;99.90;;;;;;4844504;29;20109;-81
2023/12/21 01:08:56;;;;;;;4.93;1.30;;;11.10;99.90;;;;;;4846756;29;20387;-80
2023/12/21 01:11:21;;;;;;;7.40;1.60;;;11.10;99.90;;;;;;4841856;29;20034;-81
2023/12/21 01:13:47;;;;;;;4.90;1.15;;;11.10;99.90;;;;;;4847797;29;20037;-81
2023/12/21 01:16:15;;;;;;;4.18;1.38;;;11.10;99.90;;;;;;4842638;29;20042;-81
2023/12/21 01:18:41;;;;;;;5.50;1.40;;;11.10;99.90;;;;;;4843140;29;20037;-81
2023/12/21 01:21:07;;;;;;;4.35;1.50;;;11.20;99.90;;;;;;4846557;29;20077;-81
2023/12/21 01:23:33;;;;;;;3.85;1.25;;;11.10;99.90;;;;;;4843586;29;20038;-80
2023/12/21 01:25:58;;;;;;;4.43;1.23;;;11.20;99.90;;;;;;4844728;29;20049;-80
2023/12/21 01:28:24;;;;;;;3.38;1.20;;;11.20;99.90;;;;;;4842610;29;20484;-80
2023/12/21 01:30:50;;;;;;;8.10;1.20;;;11.20;99.90;;;;;;4848617;29;20475;-80
2023/12/21 01:33:15;;;;;;;3.55;1.00;;;11.30;99.90;;;;;;4850406;29;20030;-80
2023/12/21 01:35:41;;;;;;;4.32;1.10;;;11.30;99.90;;;;;;4847399;29;20029;-80
2023/12/21 01:38:07;;;;;;;6.32;1.10;;;11.30;99.90;;;;;;4846627;29;20090;-80
2023/12/21 01:40:32;;;;;;;4.13;1.25;;;11.30;99.90;;;;;;4845965;29;20042;-80
2023/12/21 01:42:58;;;;;;;4.60;1.33;;;11.30;99.90;;;;;;4845650;29;20402;-80
2023/12/21 01:45:24;;;;;;;2.50;0.95;;;11.30;99.90;;;;;;4844907;29;20681;-80
2023/12/21 01:47:50;;;;;;;3.22;0.90;;;11.30;99.90;;;;;;4851076;29;20483;-80
2023/12/21 01:50:16;;;;;;;5.32;1.20;;;11.30;99.90;;;;;;4847121;29;20120;-80
2023/12/21 01:52:42;;;;;;;4.50;1.17;;;11.30;99.90;;;;;;4852497;29;20125;-81
2023/12/21 01:55:09;;;;;;;3.38;0.90;;;11.30;99.90;;;;;;4847797;29;20120;-81
2023/12/21 01:57:35;;;;;;;5.45;1.00;;;11.20;99.90;;;;;;4852761;29;20566;-80
2023/12/21 02:00:01;;;;;;;2.38;0.75;;;11.30;99.90;;;;;;4833750;29;20034;-80
2023/12/21 02:02:27;;;;;;;4.15;1.00;;;11.30;99.90;;;;;;4846131;29;20391;-79
2023/12/21 02:04:53;;;;;;;4.00;0.98;;;11.30;99.90;;;;;;4844306;29;20475;-80
2023/12/21 02:07:19;;;;;;;3.30;0.90;;;11.30;99.90;;;;;;4847658;29;20022;-80
2023/12/21 02:09:45;;;;;;;4.10;1.10;;;11.30;99.90;;;;;;4845751;29;20045;-79
2023/12/21 02:12:11;;;;;;;3.22;1.13;;;11.30;99.90;;;;;;4833594;29;20418;-79
2023/12/21 02:14:37;;;;;;;2.25;0.98;;;11.30;99.90;;;;;;4843773;29;20277;-81
2023/12/21 02:17:07;;;;;;;3.50;0.90;;;11.30;99.90;;;;;;4847837;29;20030;-81
2023/12/21 02:19:33;;;;;;;4.05;0.98;;;11.30;99.90;;;;;;4845732;29;20056;-81
2023/12/21 02:22:00;;;;;;;3.85;1.33;;;11.30;99.90;;;;;;4847249;29;20033;-81
2023/12/21 02:24:26;;;;;;;2.58;1.15;;;11.30;99.90;;;;;;4843107;29;20034;-81
2023/12/21 02:26:52;;;;;;;4.28;0.90;;;11.20;99.90;;;;;;4842755;29;20045;-80
2023/12/21 02:29:17;;;;;;;3.78;1.00;;;11.20;99.90;;;;;;4844582;29;20053;-81
2023/12/21 02:31:43;;;;;;;2.63;1.15;;;11.20;99.90;;;;;;4840265;29;20030;-81
2023/12/21 02:34:09;;;;;;;4.85;0.95;;;11.20;99.90;;;;;;4846467;29;20037;-81
2023/12/21 02:36:35;;;;;;;5.07;1.00;;;11.30;99.90;;;;;;4847611;29;20388;-81
2023/12/21 02:39:00;;;;;;;2.55;0.90;;;11.20;99.90;;;;;;4842105;29;20038;-81
2023/12/21 02:41:26;;;;;;;5.47;0.98;;;11.20;99.90;;;;;;4844243;29;20140;-81
2023/12/21 02:43:51;;;;;;;1.50;0.50;;;11.30;99.90;;;;;;4844074;29;20037;-81
2023/12/21 02:46:19;;;;;;;3.22;0.77;;;11.20;99.90;;;;;;4844980;29;20034;-81
2023/12/21 02:48:44;;;;;;;3.42;1.00;;;11.20;99.90;;;;;;4846573;29;20057;-81
2023/12/21 02:51:10;;;;;;;3.30;0.75;;;11.20;99.90;;;;;;4842902;29;20120;-82
2023/12/21 02:53:36;;;;;;;2.70;0.75;;;11.10;99.90;;;;;;4847616;29;20057;-80
2023/12/21 02:56:02;;;;;;;3.10;0.80;;;11.10;99.90;;;;;;4840393;29;20654;-80
2023/12/21 02:58:28;;;;;;;4.97;0.77;;;11.10;99.90;;;;;;4842916;29;20050;-80
2023/12/21 03:00:54;;;;;;;4.43;0.90;;;11.10;99.90;;;;;;4844837;29;20549;-80
2023/12/21 03:03:19;;;;;;;3.17;0.80;;;11.10;99.90;;;;;;4838898;29;20034;-80
2023/12/21 03:05:46;;;;;;;2.47;0.70;;;11.10;99.90;;;;;;4842425;29;20109;-80
2023/12/21 03:08:11;;;;;;;2.55;0.88;;;11.00;99.90;;;;;;4845356;29;20033;-81
2023/12/21 03:10:37;;;;;;;1.25;0.60;;;11.00;99.90;;;;;;4845883;29;20058;-81
2023/12/21 03:13:04;;;;;;;2.22;0.90;;;11.00;99.90;;;;;;4840894;29;20126;-80
2023/12/21 03:15:31;;;;;;;6.82;0.90;;;11.00;99.90;;;;;;4841069;29;20034;-81
2023/12/21 03:17:57;;;;;;;4.30;1.27;;;11.00;99.90;;;;;;4843124;29;20025;-81
2023/12/21 03:20:23;;;;;;;2.42;0.77;;;11.00;99.90;;;;;;4843220;29;20343;-80
2023/12/21 03:22:48;;;;;;;1.67;0.60;;;11.10;99.90;;;;;;4845481;29;20117;-80
2023/12/21 03:25:14;;;;;;;1.60;0.70;;;11.10;99.90;;;;;;4847829;29;20508;-80
2023/12/21 03:27:40;;;;;;;2.88;0.90;;;11.20;99.90;;;;;;4845882;29;20041;-81
2023/12/21 03:30:06;;;;;;;4.38;0.70;;;11.10;99.90;;;;;;4843143;29;20037;-79
2023/12/21 03:32:32;;;;;;;2.75;0.80;;;11.10;99.90;;;;;;4841413;29;20036;-80
2023/12/21 03:34:58;;;;;;;2.25;0.65;;;11.20;99.90;;;;;;4840236;29;20033;-80
2023/12/21 03:37:27;;;;;;;1.90;1.00;;;11.20;99.90;;;;;;4842986;29;20176;-80
2023/12/21 03:39:55;;;;;;;3.08;0.93;;;11.20;99.90;;;;;;4846326;29;20065;-79
2023/12/21 03:42:21;;;;;;;2.55;0.80;;;11.20;99.90;;;;;;4843695;29;20045;-82
2023/12/21 03:44:46;;;;;;;2.70;0.80;;;11.20;99.90;;;;;;4843488;29;20041;-81
2023/12/21 03:47:12;;;;;;;2.72;0.75;;;11.20;99.90;;;;;;4846836;29;20052;-81
2023/12/21 03:49:37;;;;;;;2.78;0.98;;;11.30;99.90;;;;;;4848584;29;20045;-81
2023/12/21 03:52:03;;;;;;;3.53;1.10;;;11.30;99.90;;;;;;4852459;29;20061;-80
2023/12/21 03:54:29;;;;;;;3.80;0.98;;;11.30;99.90;;;;;;4846254;29;20111;-80
2023/12/21 03:56:54;;;;;;;5.03;0.98;;;11.30;99.90;;;;;;4847155;29;20160;-81
2023/12/21 03:59:20;;;;;;;3.15;0.98;;;11.30;99.90;;;;;;4844202;29;20379;-81
2023/12/21 04:01:46;;;;;;;3.67;0.98;;;11.30;99.90;;;;;;4841297;29;20075;-81
2023/12/21 04:04:11;;;;;;;4.32;1.15;;;11.30;99.90;;;;;;4841967;29;20034;-81
2023/12/21 04:06:37;;;;;;;2.50;1.10;;;11.30;99.90;;;;;;4844450;29;20034;-81
2023/12/21 04:09:03;;;;;;;3.85;1.10;;;11.30;99.90;;;;;;4841488;29;20479;-81
2023/12/21 04:11:28;;;;;;;3.63;1.00;;;11.30;99.90;;;;;;4847532;29;20034;-81
2023/12/21 04:13:54;;;;;;;4.03;0.93;;;11.30;99.90;;;;;;4842903;29;20105;-81
2023/12/21 04:16:20;;;;;;;3.03;1.10;;;11.40;99.90;;;;;;4843854;29;20026;-81
2023/12/21 04:18:45;;;;;;;4.78;1.15;;;11.40;99.90;;;;;;4841610;29;20045;-81
2023/12/21 04:21:11;;;;;;;4.65;1.17;;;11.40;99.90;;;;;;4843797;29;20041;-81
2023/12/21 04:23:37;;;;;;;4.80;0.90;;;11.50;99.90;;;;;;4843023;29;20036;-81
2023/12/21 04:26:03;;;;;;;3.67;1.23;;;11.50;99.90;;;;;;4843679;29;20042;-80
2023/12/21 04:28:28;;;;;;;2.83;1.02;;;11.50;99.90;;;;;;4846518;29;20036;-81
2023/12/21 04:30:54;;;;;;;4.03;1.08;;;11.60;99.90;;;;;;4842950;29;20056;-81
2023/12/21 04:33:19;;;;;;;1.75;1.00;;;11.60;99.90;;;;;;4847615;29;20037;-81
2023/12/21 04:35:46;;;;;;;3.00;0.93;;;11.60;99.90;;;;;;4842241;29;20033;-80
2023/12/21 04:38:12;;;;;;;3.00;1.05;;;11.60;99.90;;;;;;4841092;29;20567;-81
2023/12/21 04:40:38;;;;;;;3.00;0.75;;;11.60;99.90;;;;;;4846086;29;20041;-81
2023/12/21 04:43:05;;;;;;;3.22;1.05;;;11.60;99.90;;;;;;4842769;29;20430;-81
2023/12/21 04:45:31;;;;;;;3.47;1.00;;;11.60;99.90;;;;;;4844658;29;20058;-81
2023/12/21 04:47:56;;;;;;;0.85;0.75;;;11.70;99.90;;;;;;4841755;29;20513;-81
2023/12/21 04:50:22;;;;;;;5.43;0.70;;;11.70;99.90;;;;;;4845075;29;20037;-81
2023/12/21 04:52:49;;;;;;;2.10;0.90;;;11.70;99.90;;;;;;4844162;29;20034;-81
2023/12/21 04:55:16;;;;;;;2.80;0.60;;;11.70;99.90;;;;;;4845958;29;20676;-81
2023/12/21 04:57:41;;;;;;;3.20;0.90;;;11.70;99.90;;;;;;4848553;29;20049;-81
2023/12/21 05:00:07;;;;;;;2.67;0.80;;;11.60;99.90;;;;;;4841499;29;20034;-81
2023/12/21 05:02:34;;;;;;;2.50;0.80;;;11.60;99.90;;;;;;4840500;29;20070;-81
2023/12/21 05:05:00;;;;;;;4.40;1.15;;;11.50;99.90;;;;;;4845174;29;20049;-81
2023/12/21 05:07:26;;;;;;;1.98;0.80;;;11.50;99.90;;;;;;4851480;29;20403;-81
2023/12/21 05:09:51;;;;;;;4.53;0.90;;;11.40;99.90;;;;;;4844541;29;20053;-81
2023/12/21 05:12:17;;;;;;;5.80;1.00;;;11.40;99.90;;;;;;4843784;29;20132;-81
2023/12/21 05:14:43;;;;;;;2.05;0.77;;;11.40;99.90;;;;;;4843611;29;20069;-81
2023/12/21 05:17:09;;;;;;;3.90;0.90;;;11.40;99.90;;;;;;4845113;29;20070;-81
2023/12/21 05:19:34;;;;;;;3.10;0.80;;;11.40;99.90;;;;;;4843434;29;20046;-80
2023/12/21 05:22:00;;;;;;;3.83;0.90;;;11.40;99.90;;;;;;4843834;29;20041;-81
2023/12/21 05:24:25;;;;;;;1.90;0.65;;;11.40;99.90;;;;;;4843760;29;20030;-81
2023/12/21 05:26:51;;;;;;;1.92;0.68;;;11.40;99.90;;;;;;4841483;29;20047;-80
2023/12/21 05:29:17;;;;;;;2.60;0.80;;;11.40;99.90;;;;;;4838125;29;20085;-81
2023/12/21 05:31:42;;;;;;;3.55;0.73;;;11.40;99.90;;;;;;4839038;29;20045;-81
2023/12/21 05:34:08;;;;;;;4.65;1.20;;;11.40;99.90;;;;;;4844412;29;20066;-81
2023/12/21 05:36:34;;;;;;;4.78;0.93;;;11.40;99.90;;;;;;4842034;29;20030;-81
2023/12/21 05:39:00;;;;;;;2.22;0.80;;;11.30;99.90;;;;;;4844134;29;20120;-81
2023/12/21 05:41:26;;;;;;;2.65;0.70;;;11.30;99.90;;;;;;4845611;29;20063;-81
2023/12/21 05:43:52;;;;;;;3.90;1.02;;;11.30;99.90;;;;;;4840951;29;20520;-81
2023/12/21 05:46:18;;;;;;;1.75;0.90;;;11.40;99.90;;;;;;4849403;29;20562;-81
2023/12/21 05:48:44;;;;;;;3.15;1.10;;;11.40;99.90;;;;;;4844855;29;20745;-81
2023/12/21 05:51:10;;;;;;;3.50;0.90;;;11.30;99.90;;;;;;4841556;29;20086;-81
2023/12/21 05:53:35;;;;;;;3.58;1.35;;;11.30;99.90;;;;;;4841177;29;20427;-81
2023/12/21 05:56:02;;;;;;;3.38;1.00;;;11.30;99.90;;;;;;4844423;29;20034;-80
2023/12/21 05:58:28;;;;;;;2.97;1.20;;;11.40;99.90;;;;;;4843645;29;20528;-80
2023/12/21 06:00:54;;;;;;;2.60;1.25;;;11.40;99.90;;;;;;4844690;29;20046;-81
2023/12/21 06:03:20;;;;;;;3.05;0.98;;;11.40;99.90;;;;;;4845523;29;20033;-81
2023/12/21 06:05:46;;;;;;;5.05;1.10;;;11.40;99.90;;;;;;4845983;29;20076;-80
2023/12/21 06:08:11;;;;;;;4.28;1.17;;;11.50;99.90;;;;;;4845079;29;20097;-80
2023/12/21 06:10:37;;;;;;;1.95;0.80;;;11.50;99.90;;;;;;4843604;29;20129;-82
2023/12/21 06:13:03;;;;;;;4.80;1.00;;;11.50;99.90;;;;;;4845852;29;20121;-82
2023/12/21 06:15:28;;;;;;;3.55;0.70;;;11.50;99.90;;;;;;4845250;29;20426;-82
2023/12/21 06:17:54;;;;;;;4.13;0.80;;;11.60;99.90;;;;;;4843145;29;20056;-81
2023/12/21 06:20:20;;;;;;;3.17;0.90;;;11.60;99.90;;;;;;4843684;29;20487;-82
2023/12/21 06:22:45;;;;;;;4.38;0.68;;;11.60;99.90;;;;;;4845096;29;20041;-82
2023/12/21 06:25:11;;;;;;;4.00;0.95;;;11.70;99.90;;;;;;4841503;29;20046;-81
2023/12/21 06:27:37;;;;;;;4.38;0.80;;;11.70;99.90;;;;;;4862178;29;20013;-81
2023/12/21 06:30:04;;;;;;;3.88;0.88;;;11.70;99.90;;;;;;4868368;29;20124;-82
2023/12/21 06:32:30;;;;;;;3.38;0.65;;;11.70;99.90;;;;;;4870525;29;20027;-82
2023/12/21 06:34:56;;;;;;;3.30;0.80;;;11.70;99.90;;;;;;4871778;29;20041;-82
2023/12/21 06:37:21;;;;;;;3.83;0.90;;;11.80;99.90;;;;;;4863637;29;20034;-81
2023/12/21 06:39:47;;;;;;;3.30;0.70;;;11.80;99.90;;;;;;4848551;29;20026;-82
2023/12/21 06:42:13;;;;;;;4.97;0.88;;;11.80;99.90;;;;;;4846145;29;20045;-82
2023/12/21 06:44:39;;;;;;;5.43;0.77;;;11.80;99.90;;;;;;4846297;29;20515;-82
2023/12/21 06:47:05;;;;;;;5.18;1.38;;;11.80;99.90;;;;;;4845398;29;20029;-81
2023/12/21 06:49:31;;;;;;;1.70;0.80;;;11.90;99.90;;;;;;4850023;29;20060;-82
2023/12/21 06:51:56;;;;;;;5.18;0.95;;;11.90;99.90;;;;;;4847461;29;20415;-80
2023/12/21 06:54:22;;;;;;;3.63;0.80;;;11.90;99.90;;;;;;4843472;29;20120;-81
2023/12/21 06:56:48;;;;;;;4.18;0.80;;;11.90;99.90;;;;;;4844040;29;20032;-81
2023/12/21 06:59:13;;;;;;;4.70;0.90;;;11.90;99.90;;;;;;4843282;29;20470;-83
2023/12/21 07:01:40;;;;;;;5.50;1.00;;;12.00;99.90;;;;;;4842767;29;20038;-82
2023/12/21 07:04:08;;;;;;;5.85;0.90;;;12.00;99.90;;;;;;4849684;29;20045;-82
2023/12/21 07:06:34;;;;;;;2.75;0.70;;;12.00;99.90;;;;;;4851224;29;20065;-82
2023/12/21 07:09:00;;;;;;;4.38;1.10;;;12.00;99.90;;;;;;4844197;29;20137;-82
2023/12/21 07:11:26;;;;;;;2.17;0.90;;;12.00;99.90;;;;;;4842550;29;20116;-82
2023/12/21 07:13:52;;;;;;;2.03;0.77;;;12.00;99.90;;;;;;4842762;29;20054;-82
2023/12/21 07:16:18;;;;;;;4.25;0.80;;;12.00;99.90;;;;;;4843715;29;20026;-81
2023/12/21 07:18:43;;;;;;;4.53;1.25;;;12.00;99.90;;;;;;4845275;29;20046;-82
2023/12/21 07:21:09;;;;;;;3.22;0.88;;;12.00;99.90;;;;;;4845437;29;20281;-82
2023/12/21 07:23:35;;;;;;;4.65;0.93;;;12.10;99.90;;;;;;4846536;29;20097;-82
2023/12/21 07:26:00;;;;;;;8.07;1.25;;;12.10;99.90;;;;;;4842502;29;20033;-82
2023/12/21 07:28:28;;;;;;;2.40;0.65;;;12.10;99.90;;;;;;4847463;29;20044;-82
2023/12/21 07:30:54;;;;;;;3.17;0.88;;;12.10;99.90;;;;;;4841609;29;20442;-82
2023/12/21 07:33:19;;;;;;;3.67;0.80;;;12.10;99.90;;;;;;4842988;29;20446;-82
2023/12/21 07:35:45;;;;;;;4.82;0.80;;;12.10;99.90;;;;;;4843337;29;20644;-82
2023/12/21 07:38:12;;;;;;;8.60;1.10;;;12.10;99.90;;;;;;4842097;29;20097;-82
2023/12/21 07:40:37;;;;;;;1.98;0.95;;;12.10;99.90;;;;;;4846994;29;20499;-82
2023/12/21 07:43:03;;;;;;;5.55;0.93;;;12.10;99.90;;;;;;4841815;29;20048;-82
2023/12/21 07:45:28;;;;;;;5.80;0.93;;;12.00;99.90;;;;;;4844857;29;20081;-83
2023/12/21 07:47:54;;;;;;;6.30;0.93;;;12.00;99.90;;;;;;4842729;29;20056;-82
2023/12/21 07:50:20;;;;;;;3.00;1.10;;;12.00;99.90;;;;;;4842266;29;20577;-82
2023/12/21 07:52:45;;;;;;;4.18;0.82;;;11.90;99.90;;;;;;4841613;29;20045;-82
2023/12/21 07:55:11;;;;;;;5.18;1.10;;;11.90;99.90;;;;;;4843502;29;20034;-82
2023/12/21 07:57:37;;;;;;;5.00;1.10;;;11.90;99.90;;;;;;4845171;29;20114;-82
2023/12/21 08:00:03;;;;;;;5.55;1.08;;;12.00;99.90;;;;;;4843138;29;20133;-82
2023/12/21 08:02:28;;;;;;;5.03;0.98;;;12.00;99.90;;;;;;4843554;29;20034;-82
2023/12/21 08:04:54;;;;;;;8.38;1.08;;;12.00;99.90;;;;;;4842600;29;20394;-81
2023/12/21 08:07:19;;;;;;;3.05;1.00;;;12.00;99.90;;;;;;4841976;29;20116;-82
2023/12/21 08:09:45;;;;;;;2.28;0.85;;;12.00;99.90;;;;;;4838939;29;20541;-81
2023/12/21 08:12:13;;;;;;;5.53;1.00;;;12.10;99.90;;;;;;4845372;29;20041;-82
2023/12/21 08:14:39;;;;;;;3.58;0.90;;;12.10;99.90;;;;;;4847376;29;20061;-81
2023/12/21 08:17:09;;;;;;;3.50;0.80;;;12.10;99.90;;;;;;4848273;29;20033;-82
2023/12/21 08:19:36;;;;;;;5.78;1.05;;;12.10;99.90;;;;;;4853742;29;20042;-81
2023/12/21 08:22:02;;;;;;;6.68;0.90;;;12.10;99.90;;;;;;4847643;29;20029;-82
2023/12/21 08:24:28;;;;;;;2.97;0.88;;;12.00;99.90;;;;;;4839343;29;20182;-82
2023/12/21 08:26:54;;;;;;;6.78;1.30;;;12.00;99.90;;;;;;4846403;29;20486;-83
2023/12/21 08:29:19;;;;;;;3.60;1.25;;;11.90;99.90;;;;;;4842909;29;20438;-81
2023/12/21 08:31:45;;;;;;;6.43;1.00;;;11.80;99.90;;;;;;4845052;29;20048;-81
2023/12/21 08:34:11;;;;;;;10.23;1.38;;;11.80;99.90;;;;;;4846988;29;20486;-82
2023/12/21 08:36:36;;;;;;;2.97;0.90;;;11.80;99.90;;;;;;4844074;29;20037;-82
2023/12/21 08:39:03;;;;;;;8.30;1.05;;;11.90;99.90;;;;;;4842984;29;20037;-83
2023/12/21 08:41:29;;;;;;;4.22;0.88;;;11.90;99.90;;;;;;4841903;29;20033;-83
2023/12/21 08:43:55;;;;;;;4.45;0.93;;;11.90;99.90;;;;;;4840140;29;20406;-81
2023/12/21 08:46:21;;;;;;;4.10;1.00;;;12.00;99.90;;;;;;4841674;29;20037;-81
2023/12/21 08:48:47;;;;;;;5.55;0.90;;;12.10;99.90;;;;;;4843852;29;20036;-82
2023/12/21 08:51:14;;;;;;;5.65;1.00;;;12.00;99.90;;;;;;4843906;29;20048;-81
2023/12/21 08:53:39;;;;;;;7.95;1.00;;;12.10;99.90;;;;;;4841756;29;20030;-82
2023/12/21 08:56:05;;;;;;;4.68;1.25;;;12.10;99.90;;;;;;4843227;29;20386;-82
2023/12/21 08:58:31;;;;;;;6.70;1.27;;;12.10;99.90;;;;;;4837459;29;20042;-82
2023/12/21 09:00:58;;;;;;;4.78;1.20;;;12.10;99.90;;;;;;4837965;29;20041;-82
2023/12/21 09:03:24;;;;;;;4.68;1.00;;;12.20;99.90;;;;;;4839728;29;20523;-82
2023/12/21 09:05:50;;;;;;;4.10;0.95;;;12.20;99.90;;;;;;4839519;29;20487;-81
2023/12/21 09:08:16;;;;;;;8.25;1.27;;;12.20;99.90;;;;;;4841063;29;20037;-81
2023/12/21 09:10:41;;;;;;;4.93;0.93;;;12.10;99.90;;;;;;4842760;29;20056;-83
2023/12/21 09:13:07;;;;;;;7.43;0.90;;;12.20;99.90;;;;;;4843195;29;20034;-82
2023/12/21 09:15:33;;;;;;;5.55;0.90;;;12.20;99.90;;;;;;4843783;29;20150;-82
2023/12/21 09:17:58;;;;;;;2.33;0.60;;;12.20;99.90;;;;;;4845093;29;20095;-83
2023/12/21 09:20:25;;;;;;;6.07;1.00;;;12.20;99.90;;;;;;4842242;29;20451;-82
2023/12/21 09:22:50;;;;;;;2.97;0.88;;;12.20;99.90;;;;;;4840845;29;20034;-82
2023/12/21 09:25:18;;;;;;;6.57;0.90;;;12.20;99.90;;;;;;4844680;29;20086;-82
2023/12/21 09:27:44;;;;;;;5.10;1.00;;;12.30;99.90;;;;;;4839372;29;20120;-82
2023/12/21 09:30:10;;;;;;;2.08;0.77;;;12.30;99.90;;;;;;4846319;29;20048;-82
2023/12/21 09:32:38;;;;;;;2.95;0.70;;;12.20;99.90;;;;;;4841674;29;20530;-82
2023/12/21 09:35:04;;;;;;;3.22;0.85;;;12.20;99.90;;;;;;4843707;29;20062;-82
2023/12/21 09:37:30;;;;;;;2.70;0.90;;;12.30;99.90;;;;;;4847383;29;20038;-82
2023/12/21 09:39:57;;;;;;;5.80;1.10;;;12.20;99.90;;;;;;4844622;29;20026;-82
2023/12/21 09:42:27;;;;;;;3.53;0.70;;;12.30;99.90;;;;;;4846898;29;20121;-83
2023/12/21 09:44:53;;;;;;;8.02;1.02;;;12.20;99.90;;;;;;4845234;29;20069;-83
2023/12/21 09:47:22;;;;;;;4.97;0.90;;;12.20;99.90;;;;;;4844913;29;20137;-82
2023/12/21 09:49:49;;;;;;;4.05;1.17;;;12.30;99.90;;;;;;4848059;29;20060;-81
2023/12/21 09:52:17;;;;;;;6.93;0.95;;;12.30;99.90;;;;;;4843508;29;20157;-82
2023/12/21 09:54:45;;;;;;;5.00;1.40;;;12.20;99.90;;;;;;4845491;29;20128;-82
2023/12/21 09:57:14;;;;;;;3.85;0.90;;;12.20;99.90;;;;;;4843134;29;20069;-82
2023/12/21 09:59:40;;;;;;;4.80;0.95;;;12.10;99.90;;;;;;4842386;29;20089;-81
2023/12/21 10:02:11;;;;;;;4.20;1.77;;;12.10;99.90;;;;;;4842396;29;20038;-82
2023/12/21 10:04:43;;;;;;;3.13;0.82;;;12.00;99.90;;;;;;4834540;29;20034;-82
2023/12/21 10:07:09;;;;;;;3.72;1.20;;;11.90;99.90;;;;;;4846100;29;20737;-82
2023/12/21 10:09:37;;;;;;;5.50;1.30;;;11.80;99.90;;;;;;4846440;29;20045;-81
2023/12/21 10:12:04;;;;;;;5.20;1.30;;;11.80;99.90;;;;;;4830039;29;20037;-81
2023/12/21 10:14:31;;;;;;;6.22;1.70;;;11.70;99.90;;;;;;4850507;29;20558;-82
2023/12/21 10:16:58;;;;;;;9.40;1.63;;;11.70;99.90;;;;;;4848714;29;20030;-82
2023/12/21 10:19:24;;;;;;;11.88;1.98;;;11.70;99.90;;;;;;4846807;29;20025;-82
2023/12/21 10:21:51;;;;;;;3.70;1.23;;;11.70;99.90;;;;;;4854267;29;20029;-81
2023/12/21 10:24:17;;;;;;;5.40;1.23;;;11.70;99.90;;;;;;4861273;29;20170;-81
2023/12/21 10:26:44;;;;;;;5.25;1.52;;;11.80;99.90;;;;;;4862901;29;20127;-82
2023/12/21 10:29:15;;;;;;;4.95;1.50;;;11.90;99.90;;;;;;4861316;29;20129;-82
2023/12/21 10:31:44;;;;;;;5.32;1.23;;;11.90;99.90;;;;;;4848937;29;20101;-82
2023/12/21 10:34:10;;;;;;;6.13;1.50;;;12.10;99.90;;;;;;4844294;29;20125;-82
2023/12/21 10:36:40;;;;;;;5.20;1.35;;;12.10;99.90;;;;;;4832924;29;20593;-82
2023/12/21 10:39:07;;;;;;;6.35;1.52;;;12.20;99.90;;;;;;4852890;29;20034;-82
2023/12/21 10:41:33;;;;;;;6.55;1.08;;;12.20;99.90;;;;;;4847031;29;20402;-82
2023/12/21 10:43:59;;;;;;;7.50;1.48;;;12.20;99.90;;;;;;4844583;29;20034;-82
2023/12/21 10:46:30;;;;;;;5.88;1.50;;;12.30;99.90;;;;;;4846575;29;20037;-81
2023/12/21 10:48:59;;;;;;;7.30;1.33;;;12.30;99.90;;;;;;4850720;29;20136;-82
2023/12/21 10:51:28;;;;;;;2.88;0.93;;;12.40;99.90;;;;;;4844244;29;20525;-82
2023/12/21 10:53:57;;;;;;;6.80;1.40;;;12.40;99.90;;;;;;4844294;29;20033;-82
2023/12/21 10:56:25;;;;;;;3.67;1.23;;;12.50;99.90;;;;;;4845055;29;20394;-83
2023/12/21 10:58:53;;;;;;;3.20;0.75;;;12.60;99.90;;;;;;4841780;29;20054;-82
2023/12/21 11:01:20;;;;;;;4.20;1.20;;;12.70;99.90;;;;;;4846333;29;20029;-82
2023/12/21 11:03:48;;;;;;;7.63;1.30;;;12.70;99.90;;;;;;4846127;29;20111;-83
2023/12/21 11:06:16;;;;;;;5.50;1.00;;;12.80;99.90;;;;;;4847999;29;20120;-82
2023/12/21 11:08:43;;;;;;;3.65;1.02;;;12.80;99.90;;;;;;4845875;29;20120;-83
2023/12/21 11:11:11;;;;;;;5.82;1.20;;;12.90;99.90;;;;;;4847517;29;20050;-82
2023/12/21 11:13:41;;;;;;;2.88;0.80;;;13.00;99.90;;;;;;4847881;29;20034;-82
2023/12/21 11:16:09;;;;;;;6.88;1.15;;;13.00;99.90;;;;;;4846499;29;20032;-83
2023/12/21 11:18:36;;;;;;;4.80;1.35;;;13.10;99.90;;;;;;4844563;29;20045;-82
2023/12/21 11:21:03;;;;;;;5.97;1.35;;;13.10;99.90;;;;;;4832373;29;20034;-82
2023/12/21 11:23:29;;;;;;;2.33;0.80;;;13.10;99.90;;;;;;4838089;29;20395;-82
2023/12/21 11:25:56;;;;;;;5.07;1.30;;;13.20;99.90;;;;;;4840895;29;20036;-83
2023/12/21 11:28:32;;;;;;;5.68;1.02;;;13.30;99.90;;;;;;4841428;29;20085;-82
2023/12/21 11:30:58;;;;;;;5.95;1.13;;;13.40;99.90;;;;;;4844743;29;20041;-82
2023/12/21 11:33:31;;;;;;;5.50;1.05;;;13.30;99.90;;;;;;4848060;29;20448;-82
2023/12/21 11:35:57;;;;;;;6.32;1.23;;;13.40;99.90;;;;;;4849137;29;20111;-82
2023/12/21 11:38:36;;;;;;;4.28;1.10;;;13.30;99.90;;;;;;4841385;29;20490;-82
2023/12/21 11:41:03;;;;;;;4.82;1.00;;;13.30;99.90;;;;;;4843285;29;20045;-82
2023/12/21 11:43:30;;;;;;;2.83;1.08;;;13.30;99.90;;;;;;4845447;29;20131;-82
2023/12/21 11:45:56;;;;;;;3.45;0.80;;;13.40;99.90;;;;;;4845262;29;20038;-81
2023/12/21 11:48:22;;;;;;;2.45;0.95;;;13.40;99.90;;;;;;4852302;29;20116;-82
2023/12/21 11:50:47;;;;;;;3.25;0.90;;;13.50;99.90;;;;;;4847826;29;20494;-81
2023/12/21 11:53:15;;;;;;;2.97;1.17;;;13.60;99.90;;;;;;4843145;29;20034;-82
2023/12/21 11:55:43;;;;;;;1.42;0.80;;;13.60;99.90;;;;;;4844793;29;20041;-81
2023/12/21 11:58:16;;;;;;;3.60;1.08;;;13.60;98.50;;;;;;4841087;29;20101;-82
2023/12/21 12:00:44;;;;;;;1.70;0.65;;;13.70;99.90;;;;;;4841340;29;20030;-82
2023/12/21 12:03:11;;;;;;;4.28;0.93;;;13.80;99.50;;;;;;4843608;29;20069;-82
2023/12/21 12:05:37;;;;;;;3.08;0.80;;;13.80;95.40;;;;;;4845318;29;20037;-82
2023/12/21 12:08:03;;;;;;;3.67;1.02;;;13.90;95.00;;;;;;4847080;29;20111;-82
2023/12/21 12:10:29;;;;;;;3.63;0.80;;;13.90;95.30;;;;;;4842821;29;20511;-81
2023/12/21 12:12:55;;;;;;;2.28;0.63;;;13.90;94.40;;;;;;4842349;29;20078;-82
2023/12/21 12:15:21;;;;;;;3.38;0.90;;;13.90;94.00;;;;;;4845455;29;20030;-83
2023/12/21 12:17:46;;;;;;;2.90;1.42;;;13.90;92.50;;;;;;4836008;29;20534;-83
2023/12/21 12:20:12;;;;;;;3.17;1.00;;;13.80;91.90;;;;;;4838803;29;20060;-82
2023/12/21 12:22:38;;;;;;;4.78;0.98;;;13.80;93.80;;;;;;4844823;29;20037;-83
2023/12/21 12:25:05;;;;;;;2.75;0.50;;;13.80;91.50;;;;;;4845312;29;21196;-83
2023/12/21 12:27:31;;;;;;;2.78;0.80;;;13.90;90.10;;;;;;4854296;29;20057;-82
2023/12/21 12:29:57;;;;;;;1.98;0.50;;;13.90;90.10;;;;;;4859675;29;20045;-82
2023/12/21 12:32:23;;;;;;;2.60;1.10;;;14.00;88.50;;;;;;4863094;29;20030;-83
2023/12/21 12:34:49;;;;;;;1.65;0.70;;;14.00;84.20;;;;;;4861677;29;20097;-82
2023/12/21 12:37:15;;;;;;;1.27;0.60;;;14.00;83.10;;;;;;4846933;29;20029;-83
2023/12/21 12:41:20;;;;;;;2.42;0.70;;;14.10;82.10;;;;;;5120119;27;20192;-83